Time;durP1;ratioP1;P1;durP2;ratioP2;P2;SDS_P1;SDS_P2;PMS_P1;PMS_P2;Temp;Humidity;BMP_temperature;BMP_pressure;BME280_temperature;BME280_humidity;BME280_pressure;Samples;Min_cycle;Max_cycle;Signal;HPM_P1;HPM_P2
2022/05/17 00:01:51;;;;;;;0.00;0.00;;;;;;;16.65;61.80;100580.56;7360723;19;20462;-58
2022/05/17 00:04:17;;;;;;;0.03;0.03;;;;;;;16.64;61.59;100578.00;7360513;19;20006;-59
2022/05/17 00:06:42;;;;;;;0.00;0.00;;;;;;;16.61;61.41;100579.84;7360390;19;20045;-58
2022/05/17 00:09:08;;;;;;;0.10;0.10;;;;;;;16.61;61.42;100574.56;7362169;19;20438;-57
2022/05/17 00:11:33;;;;;;;0.10;0.10;;;;;;;16.56;61.44;100566.03;7358367;19;20018;-58
2022/05/17 00:13:58;;;;;;;0.00;0.00;;;;;;;16.61;61.92;100579.84;7361619;19;20018;-58
2022/05/17 00:16:25;;;;;;;0.00;0.00;;;;;;;16.61;61.75;100571.09;7361465;19;20643;-59
2022/05/17 00:18:51;;;;;;;0.00;0.00;;;;;;;16.59;62.14;100571.19;7360468;19;20029;-59
2022/05/17 00:21:16;;;;;;;0.00;0.00;;;;;;;16.58;61.03;100573.91;7360249;19;21034;-58
2022/05/17 00:23:43;;;;;;;0.00;0.00;;;;;;;16.57;61.50;100566.91;7361401;19;20003;-58
2022/05/17 00:26:09;;;;;;;0.00;0.00;;;;;;;16.40;60.59;100543.16;7360537;19;20034;-58
2022/05/17 00:28:37;;;;;;;0.00;0.00;;;;;;;16.54;60.85;100573.19;7361871;19;20022;-59
2022/05/17 00:31:02;;;;;;;0.00;0.00;;;;;;;16.52;61.09;100577.66;7359108;19;20014;-59
2022/05/17 00:33:28;;;;;;;0.00;0.00;;;;;;;16.51;60.79;100572.47;7360038;19;20011;-58
2022/05/17 00:35:53;;;;;;;0.00;0.00;;;;;;;16.44;60.74;100565.81;7361803;19;21080;-59
2022/05/17 00:38:19;;;;;;;0.00;0.00;;;;;;;16.48;60.86;100577.91;7362110;19;20015;-57
2022/05/17 00:40:45;;;;;;;0.00;0.00;;;;;;;16.45;60.45;100578.91;7359887;19;20014;-59
2022/05/17 00:43:20;;;;;;;0.10;0.10;;;;;;;16.44;60.63;100569.31;7360426;19;20011;-58
2022/05/17 00:45:49;;;;;;;0.00;0.00;;;;;;;16.41;60.37;100572.06;7361797;19;20029;-58
2022/05/17 00:48:17;;;;;;;0.00;0.00;;;;;;;16.37;61.27;100564.38;7358665;19;20019;-59
2022/05/17 00:50:51;;;;;;;0.00;0.00;;;;;;;16.25;59.31;100545.63;7361605;19;20018;-58
2022/05/17 00:53:21;;;;;;;0.00;0.00;;;;;;;16.30;60.92;100559.44;7360053;19;20014;-58
2022/05/17 00:55:52;;;;;;;0.00;0.00;;;;;;;16.18;60.76;100538.09;7359262;19;20038;-58
2022/05/17 00:58:22;;;;;;;0.00;0.00;;;;;;;16.26;60.64;100552.59;7358932;19;20010;-58
2022/05/17 01:01:02;;;;;;;0.00;0.00;;;;;;;16.27;60.44;100543.78;7357124;19;20006;-59
2022/05/17 01:03:37;;;;;;;0.00;0.00;;;;;;;16.22;61.55;100545.78;7359697;19;20101;-58
2022/05/17 01:06:02;;;;;;;0.00;0.00;;;;;;;16.10;61.73;100514.75;7355861;19;20006;-59
2022/05/17 01:08:29;;;;;;;0.00;0.00;;;;;;;16.08;62.11;100519.25;7363115;19;20010;-58
2022/05/17 01:10:54;;;;;;;0.10;0.10;;;;;;;16.04;62.47;100515.06;7363620;19;20018;-58
2022/05/17 01:16:07;;;;;;;0.10;0.10;;;;;;;16.09;62.27;100523.59;7261920;19;2004429;-58
2022/05/17 01:18:34;;;;;;;0.00;0.00;;;;;;;16.05;62.70;100511.47;7363736;19;20022;-58
2022/05/17 01:20:59;;;;;;;0.00;0.00;;;;;;;16.00;61.95;100505.59;7363301;19;20018;-59
2022/05/17 01:23:25;;;;;;;0.05;0.05;;;;;;;15.86;61.98;100490.44;7361737;19;20018;-59
2022/05/17 01:25:50;;;;;;;0.00;0.00;;;;;;;15.93;62.18;100504.19;7358915;19;20134;-58
2022/05/17 01:28:21;;;;;;;0.00;0.00;;;;;;;15.90;61.88;100499.06;7361736;19;20019;-58
2022/05/17 01:30:47;;;;;;;0.00;0.00;;;;;;;15.83;62.38;100499.34;7363079;19;20686;-58
2022/05/17 01:33:17;;;;;;;0.00;0.00;;;;;;;15.80;62.95;100496.84;7363646;19;20026;-58
2022/05/17 01:35:43;;;;;;;0.10;0.10;;;;;;;15.75;62.38;100480.41;7361214;19;20026;-57
2022/05/17 01:38:09;;;;;;;0.05;0.05;;;;;;;15.71;62.90;100493.81;7362984;19;20029;-58
2022/05/17 01:40:36;;;;;;;0.03;0.03;;;;;;;15.67;62.46;100501.00;7364796;19;20035;-57
2022/05/17 01:43:01;;;;;;;0.00;0.00;;;;;;;15.62;62.81;100492.44;7364616;19;20483;-56
2022/05/17 01:45:27;;;;;;;0.00;0.00;;;;;;;15.61;63.19;100495.97;7364171;19;20018;-58
2022/05/17 01:47:53;;;;;;;0.05;0.05;;;;;;;15.59;63.25;100487.31;7365072;19;20018;-58
2022/05/17 01:50:18;;;;;;;0.00;0.00;;;;;;;15.55;63.39;100483.13;7360860;19;20006;-58
2022/05/17 01:52:44;;;;;;;0.00;0.00;;;;;;;15.51;63.77;100476.28;7362417;19;20011;-58
2022/05/17 01:55:11;;;;;;;0.00;0.00;;;;;;;15.43;63.01;100473.16;7365695;19;20015;-59
2022/05/17 01:57:36;;;;;;;0.00;0.00;;;;;;;15.53;63.27;100493.72;7358307;19;20018;-59
2022/05/17 02:00:04;;;;;;;0.00;0.00;;;;;;;15.46;63.89;100465.09;7358286;19;20018;-57
2022/05/17 02:02:29;;;;;;;0.00;0.00;;;;;;;15.51;63.59;100474.53;7359841;19;20086;-59
2022/05/17 02:04:55;;;;;;;0.00;0.00;;;;;;;15.50;63.39;100475.44;7361747;19;20087;-59
2022/05/17 02:07:20;;;;;;;0.00;0.00;;;;;;;15.50;64.34;100477.22;7358511;19;20399;-59
2022/05/17 02:09:47;;;;;;;0.00;0.00;;;;;;;15.48;62.94;100476.44;7361853;19;20022;-58
2022/05/17 02:12:13;;;;;;;0.00;0.00;;;;;;;15.48;64.07;100474.66;7356693;19;20467;-59
2022/05/17 02:14:38;;;;;;;0.00;0.00;;;;;;;15.47;63.49;100480.00;7359390;19;20006;-57
2022/05/17 02:17:04;;;;;;;0.00;0.00;;;;;;;15.46;63.83;100473.00;7359345;19;20033;-58
2022/05/17 02:19:30;;;;;;;0.00;0.00;;;;;;;15.45;63.82;100466.91;7361382;19;20047;-57
2022/05/17 02:21:56;;;;;;;0.00;0.00;;;;;;;15.45;64.03;100471.31;7364187;19;20015;-57
2022/05/17 02:24:22;;;;;;;0.00;0.00;;;;;;;15.44;63.84;100456.44;7365456;19;20038;-58
2022/05/17 02:26:48;;;;;;;0.00;0.00;;;;;;;15.44;64.58;100461.72;7368016;19;20030;-57
2022/05/17 02:29:13;;;;;;;0.00;0.00;;;;;;;15.43;64.28;100454.75;7364696;19;20074;-58
2022/05/17 02:31:39;;;;;;;0.00;0.00;;;;;;;15.43;64.67;100454.75;7366406;19;20022;-58
2022/05/17 02:34:04;;;;;;;0.10;0.10;;;;;;;15.46;64.37;100460.72;7364782;19;20002;-58
2022/05/17 02:36:30;;;;;;;0.00;0.00;;;;;;;15.44;64.31;100456.44;7365127;19;20025;-56
2022/05/17 02:38:56;;;;;;;0.00;0.00;;;;;;;15.37;62.85;100458.53;7366282;19;20007;-58
2022/05/17 02:41:23;;;;;;;0.00;0.00;;;;;;;15.47;64.41;100472.09;7363405;19;20583;-57
2022/05/17 02:43:49;;;;;;;;;;;;;;;15.49;61.05;100470.25;7367422;19;20007;-58
2022/05/17 02:46:14;;;;;;;0.00;0.00;;;;;;;15.47;62.90;100469.47;7364085;19;19938;-58
2022/05/17 02:48:40;;;;;;;0.00;0.00;;;;;;;15.45;64.64;100460.78;7365544;19;20006;-59
2022/05/17 02:51:18;;;;;;;0.00;0.00;;;;;;;15.42;64.09;100451.25;7365847;19;20495;-59
2022/05/17 02:53:44;;;;;;;0.03;0.03;;;;;;;15.40;65.78;100446.97;7365371;19;20007;-59
2022/05/17 02:56:10;;;;;;;0.00;0.00;;;;;;;15.37;65.21;100449.78;7367638;19;21491;-59
2022/05/17 02:58:36;;;;;;;0.00;0.00;;;;;;;15.36;65.59;100456.81;7365981;19;20011;-57
2022/05/17 03:01:01;;;;;;;0.00;0.00;;;;;;;15.35;65.94;100451.59;7366999;19;20038;-59
2022/05/17 03:03:28;;;;;;;0.00;0.00;;;;;;;15.31;65.92;100456.19;7362278;19;20081;-59
2022/05/17 03:05:53;;;;;;;0.00;0.00;;;;;;;15.33;63.89;100464.84;7359881;19;20023;-58
2022/05/17 03:08:19;;;;;;;0.00;0.00;;;;;;;15.31;65.54;100467.56;7366207;19;20851;-57
2022/05/17 03:10:45;;;;;;;0.00;0.00;;;;;;;15.32;66.04;100466.63;7368489;19;20462;-58
2022/05/17 03:13:11;;;;;;;0.00;0.00;;;;;;;15.34;66.04;100476.22;7367733;19;20031;-59
2022/05/17 03:15:37;;;;;;;0.00;0.00;;;;;;;15.35;65.88;100477.91;7365995;19;20034;-58
2022/05/17 03:18:02;;;;;;;0.00;0.00;;;;;;;15.39;65.65;100474.22;7359906;19;20013;-57
2022/05/17 03:20:28;;;;;;;0.00;0.00;;;;;;;15.34;65.50;100449.91;7366871;19;20042;-58
2022/05/17 03:22:53;;;;;;;0.00;0.00;;;;;;;15.43;65.27;100466.13;7366287;19;20003;-59
2022/05/17 03:25:19;;;;;;;0.00;0.00;;;;;;;15.46;65.94;100468.63;7370355;19;20693;-58
2022/05/17 03:27:45;;;;;;;0.00;0.00;;;;;;;15.46;65.72;100438.78;7367770;19;20093;-57
2022/05/17 03:30:11;;;;;;;0.00;0.00;;;;;;;15.49;66.28;100428.13;7368970;19;20762;-57
2022/05/17 03:32:37;;;;;;;0.00;0.00;;;;;;;15.54;66.37;100431.41;7366450;19;20010;-57
2022/05/17 03:35:02;;;;;;;0.10;0.10;;;;;;;15.54;66.27;100434.88;7367897;19;20003;-57
2022/05/17 03:37:28;;;;;;;0.00;0.00;;;;;;;15.57;66.38;100436.53;7366361;19;20006;-57
2022/05/17 03:39:53;;;;;;;0.00;0.00;;;;;;;15.59;66.68;100439.94;7369495;19;20010;-59
2022/05/17 03:42:19;;;;;;;0.00;0.00;;;;;;;15.62;66.01;100442.44;7367870;19;20077;-57
2022/05/17 03:44:45;;;;;;;0.00;0.00;;;;;;;15.64;67.06;100430.06;7367385;19;20011;-58
2022/05/17 03:47:10;;;;;;;0.03;0.03;;;;;;;15.61;66.59;100431.97;7367790;19;20015;-58
2022/05/17 03:49:38;;;;;;;0.10;0.10;;;;;;;15.69;66.73;100443.88;7369241;19;20010;-58
2022/05/17 03:52:05;;;;;;;0.10;0.10;;;;;;;15.58;66.82;100425.06;7367904;19;20090;-59
2022/05/17 03:54:31;;;;;;;0.00;0.00;;;;;;;15.73;66.96;100442.81;7368266;19;20026;-59
2022/05/17 03:56:56;;;;;;;0.00;0.00;;;;;;;15.75;66.94;100446.19;7366475;19;20010;-59
2022/05/17 03:59:22;;;;;;;0.00;0.00;;;;;;;15.78;66.49;100446.06;7367827;19;20122;-59
2022/05/17 04:01:47;;;;;;;0.00;0.00;;;;;;;15.79;66.48;100436.38;7366878;19;20015;-58
2022/05/17 04:04:13;;;;;;;0.00;0.00;;;;;;;15.86;66.46;100431.66;7368556;19;20002;-57
2022/05/17 04:06:38;;;;;;;0.05;0.05;;;;;;;15.89;66.53;100449.97;7369149;19;20525;-58
2022/05/17 04:09:05;;;;;;;0.00;0.00;;;;;;;15.80;66.51;100430.19;7368725;19;20006;-57
2022/05/17 04:11:31;;;;;;;0.05;0.05;;;;;;;15.80;66.12;100417.88;7366699;19;20010;-58
2022/05/17 04:13:57;;;;;;;0.00;0.00;;;;;;;15.97;65.72;100437.28;7369828;19;20042;-59
2022/05/17 04:16:22;;;;;;;0.00;0.00;;;;;;;15.99;65.74;100422.25;7366524;19;21223;-58
2022/05/17 04:18:48;;;;;;;0.00;0.00;;;;;;;15.99;65.43;100423.09;7369525;19;20085;-58
2022/05/17 04:21:14;;;;;;;0.10;0.10;;;;;;;15.97;65.16;100413.56;7367186;19;20466;-57
2022/05/17 04:23:39;;;;;;;0.00;0.00;;;;;;;16.02;65.23;100419.47;7369283;19;20011;-57
2022/05/17 04:26:05;;;;;;;0.00;0.00;;;;;;;16.03;64.98;100423.81;7366415;19;20018;-57
2022/05/17 04:28:31;;;;;;;0.00;0.00;;;;;;;16.03;64.84;100439.59;7369086;19;20007;-58
2022/05/17 04:30:56;;;;;;;0.00;0.00;;;;;;;16.02;64.96;100422.09;7364030;19;20011;-58
2022/05/17 04:33:23;;;;;;;0.00;0.00;;;;;;;16.03;65.10;100432.56;7367745;19;20678;-58
2022/05/17 04:35:49;;;;;;;0.00;0.00;;;;;;;16.04;65.31;100430.78;7367166;19;20015;-57
2022/05/17 04:38:14;;;;;;;0.00;0.00;;;;;;;16.05;65.66;100425.41;7366508;19;20017;-58
2022/05/17 04:40:41;;;;;;;0.00;0.00;;;;;;;16.05;65.82;100428.06;7366920;19;20018;-58
2022/05/17 04:43:08;;;;;;;0.10;0.10;;;;;;;16.07;65.34;100426.22;7364004;19;20186;-58
2022/05/17 04:45:33;;;;;;;0.00;0.00;;;;;;;16.09;65.61;100423.50;7367598;19;20027;-57
2022/05/17 04:47:59;;;;;;;0.00;0.00;;;;;;;16.09;65.43;100423.50;7365185;19;20372;-58
2022/05/17 04:50:24;;;;;;;0.10;0.10;;;;;;;16.09;65.49;100424.34;7366699;19;20011;-59
2022/05/17 04:52:50;;;;;;;0.00;0.00;;;;;;;16.11;65.48;100418.13;7366584;19;20456;-59
2022/05/17 04:55:18;;;;;;;0.10;0.10;;;;;;;16.12;65.61;100420.72;7368488;19;20003;-59
2022/05/17 04:57:44;;;;;;;0.00;0.00;;;;;;;16.09;65.73;100420.84;7367007;19;20728;-58
2022/05/17 05:00:16;;;;;;;0.00;0.00;;;;;;;16.14;65.40;100421.47;7366941;19;20095;-57
2022/05/17 05:02:42;;;;;;;0.00;0.00;;;;;;;16.15;64.66;100423.19;7367673;19;20010;-57
2022/05/17 05:05:08;;;;;;;0.03;0.03;;;;;;;16.16;65.85;100424.88;7367230;19;20050;-59
2022/05/17 05:07:33;;;;;;;0.00;0.00;;;;;;;16.08;66.02;100417.38;7365068;19;20077;-58
2022/05/17 05:09:59;;;;;;;0.00;0.00;;;;;;;16.18;65.47;100423.03;7367093;19;20454;-58
2022/05/17 05:12:24;;;;;;;0.00;0.00;;;;;;;16.22;64.97;100429.88;7366372;19;20118;-58
2022/05/17 05:14:50;;;;;;;0.00;0.00;;;;;;;16.24;65.32;100435.91;7367267;19;20011;-58
2022/05/17 05:17:15;;;;;;;0.00;0.00;;;;;;;16.26;65.90;100451.63;7365533;19;20454;-58
2022/05/17 05:19:41;;;;;;;0.10;0.10;;;;;;;16.29;66.16;100440.94;7365115;19;20048;-58
2022/05/17 05:22:06;;;;;;;0.00;0.00;;;;;;;16.17;65.91;100423.97;7364593;19;20010;-58
2022/05/17 05:24:32;;;;;;;0.00;0.00;;;;;;;16.20;66.22;100423.78;7366792;19;20619;-58
2022/05/17 05:26:58;;;;;;;0.10;0.10;;;;;;;16.33;66.28;100443.34;7364342;19;20007;-57
2022/05/17 05:29:23;;;;;;;0.00;0.00;;;;;;;16.35;66.84;100446.72;7366916;19;20034;-58
2022/05/17 05:31:50;;;;;;;0.05;0.05;;;;;;;16.38;66.43;100448.38;7367058;19;20434;-57
2022/05/17 05:34:15;;;;;;;0.10;0.10;;;;;;;16.35;66.76;100445.88;7362742;19;20011;-57
2022/05/17 05:36:41;;;;;;;0.00;0.00;;;;;;;16.39;66.72;100457.13;7367365;19;20010;-58
2022/05/17 05:39:06;;;;;;;0.10;0.10;;;;;;;16.43;66.72;100459.53;7365055;19;20011;-57
2022/05/17 05:41:31;;;;;;;0.00;0.00;;;;;;;16.44;66.97;100457.75;7365302;19;20015;-59
2022/05/17 05:43:57;;;;;;;0.00;0.00;;;;;;;16.40;66.32;100457.03;7365631;19;20011;-57
2022/05/17 05:46:22;;;;;;;0.00;0.00;;;;;;;16.48;66.85;100461.94;7364878;19;20034;-57
2022/05/17 05:48:47;;;;;;;0.10;0.10;;;;;;;16.35;66.95;100436.19;7363352;19;20035;-58
2022/05/17 05:51:13;;;;;;;0.00;0.00;;;;;;;16.49;66.42;100453.09;7364220;19;20010;-59
2022/05/17 05:53:39;;;;;;;0.00;0.00;;;;;;;16.49;67.07;100450.47;7366939;19;20439;-58
2022/05/17 05:56:05;;;;;;;0.00;0.00;;;;;;;16.49;67.01;100464.50;7363788;19;20014;-57
2022/05/17 05:58:37;;;;;;;0.08;0.08;;;;;;;16.50;66.86;100466.19;7358833;19;20034;-58
2022/05/17 06:01:04;;;;;;;0.08;0.08;;;;;;;16.49;67.20;100463.66;7363246;19;20495;-58
2022/05/17 06:03:29;;;;;;;0.00;0.00;;;;;;;16.48;67.26;100467.22;7363283;19;20631;-59
2022/05/17 06:05:55;;;;;;;0.00;0.00;;;;;;;16.51;67.17;100467.03;7364125;19;20006;-58
2022/05/17 06:08:21;;;;;;;0.10;0.10;;;;;;;16.52;67.37;100471.38;7363859;19;20010;-58
2022/05/17 06:10:47;;;;;;;0.00;0.00;;;;;;;16.54;66.60;100475.66;7364073;19;20006;-57
2022/05/17 06:13:16;;;;;;;0.00;0.00;;;;;;;16.57;67.37;100487.81;7364336;19;20006;-58
2022/05/17 06:15:42;;;;;;;0.00;0.00;;;;;;;16.59;67.38;100485.97;7362407;19;20010;-59
2022/05/17 06:18:08;;;;;;;0.03;0.03;;;;;;;16.60;67.47;100485.88;7364685;19;20020;-57
2022/05/17 06:20:35;;;;;;;0.10;0.10;;;;;;;16.60;67.48;100483.25;7364146;19;20034;-58
2022/05/17 06:23:00;;;;;;;0.08;0.08;;;;;;;16.60;66.96;100482.41;7364882;19;20022;-58
2022/05/17 06:25:26;;;;;;;0.00;0.00;;;;;;;16.61;66.94;100489.38;7364413;19;20025;-57
2022/05/17 06:27:52;;;;;;;0.00;0.00;;;;;;;16.61;67.25;100486.72;7363485;19;20090;-58
2022/05/17 06:30:18;;;;;;;0.00;0.00;;;;;;;16.52;66.92;100459.03;7363364;19;20010;-58
2022/05/17 06:32:44;;;;;;;0.10;0.10;;;;;;;16.60;67.07;100483.25;7362035;19;20773;-57
2022/05/17 06:35:10;;;;;;;0.00;0.00;;;;;;;16.55;66.90;100480.00;7362055;19;20042;-57
2022/05/17 06:37:37;;;;;;;0.00;0.00;;;;;;;16.60;66.92;100501.69;7357845;19;20014;-57
2022/05/17 06:40:03;;;;;;;0.00;0.00;;;;;;;16.61;66.92;100502.53;7360292;19;20118;-58
2022/05/17 06:42:29;;;;;;;0.10;0.10;;;;;;;16.60;66.86;100503.50;7358951;19;20923;-58
2022/05/17 06:44:54;;;;;;;0.00;0.00;;;;;;;16.56;66.84;100507.19;7363866;19;20038;-58
2022/05/17 06:47:20;;;;;;;0.00;0.00;;;;;;;16.63;66.63;100513.88;7359593;19;20531;-57
2022/05/17 06:49:46;;;;;;;0.10;0.10;;;;;;;16.63;67.11;100513.88;7362778;19;20017;-59
2022/05/17 06:52:12;;;;;;;0.10;0.10;;;;;;;16.65;67.05;100506.75;7361326;19;20003;-60
2022/05/17 06:54:37;;;;;;;0.00;0.00;;;;;;;16.66;67.15;100511.06;7362114;19;20066;-57
2022/05/17 06:57:07;;;;;;;0.10;0.10;;;;;;;16.62;66.89;100496.34;7358584;19;20419;-57
2022/05/17 06:59:34;;;;;;;0.00;0.00;;;;;;;16.71;67.20;100509.09;7362017;19;20018;-58
2022/05/17 07:02:00;;;;;;;0.10;0.10;;;;;;;16.62;66.84;100496.34;7364217;19;20069;-57
2022/05/17 07:04:29;;;;;;;0.00;0.00;;;;;;;16.78;66.45;100528.13;7355035;19;20363;-57
2022/05/17 07:06:56;;;;;;;0.05;0.05;;;;;;;16.77;66.65;100531.66;7356266;19;20090;-58
2022/05/17 07:09:22;;;;;;;0.00;0.00;;;;;;;16.76;66.21;100528.16;7361872;19;20010;-57
2022/05/17 07:14:32;;;;;;;0.00;0.00;;;;;;;16.76;66.63;100533.44;7363901;19;20039;-57
2022/05/17 07:16:57;;;;;;;0.00;0.00;;;;;;;16.78;66.60;100544.78;7365018;19;20014;-58
2022/05/17 07:19:23;;;;;;;0.03;0.03;;;;;;;16.78;66.69;100531.59;7362963;19;20014;-59
2022/05/17 07:21:48;;;;;;;0.00;0.00;;;;;;;16.80;66.53;100545.53;7367647;19;20038;-58
2022/05/17 07:24:14;;;;;;;0.00;0.00;;;;;;;16.81;67.04;100539.34;7369093;19;20011;-58
2022/05/17 07:26:39;;;;;;;0.00;0.00;;;;;;;16.86;66.98;100547.00;7368204;19;20047;-59
2022/05/17 07:29:04;;;;;;;0.00;0.00;;;;;;;16.66;66.94;100518.97;7367143;19;20107;-58
2022/05/17 07:31:30;;;;;;;0.00;0.00;;;;;;;16.90;67.11;100553.84;7368473;19;20010;-57
2022/05/17 07:33:58;;;;;;;0.10;0.10;;;;;;;16.80;67.21;100532.34;7365854;19;20014;-59
2022/05/17 07:36:23;;;;;;;0.00;0.00;;;;;;;16.99;67.14;100563.06;7365980;19;20011;-59
2022/05/17 07:38:48;;;;;;;0.00;0.00;;;;;;;17.02;67.21;100557.63;7367367;19;20751;-57
2022/05/17 07:41:14;;;;;;;0.00;0.00;;;;;;;17.09;66.93;100574.88;7369046;19;20041;-57
2022/05/17 07:43:39;;;;;;;0.03;0.03;;;;;;;17.14;66.69;100575.47;7367451;19;20034;-58
2022/05/17 07:46:05;;;;;;;0.00;0.00;;;;;;;17.19;66.68;100573.44;7368780;19;20030;-59
2022/05/17 07:48:30;;;;;;;0.00;0.00;;;;;;;17.23;66.52;100567.06;7367136;19;20028;-57
2022/05/17 07:50:55;;;;;;;0.10;0.10;;;;;;;17.21;67.05;100553.09;7368638;19;20124;-57
2022/05/17 07:53:21;;;;;;;0.00;0.00;;;;;;;17.33;67.06;100568.28;7343080;19;20006;-57
2022/05/17 07:55:48;;;;;;;0.00;0.00;;;;;;;17.42;66.72;100571.38;7366786;19;20020;-58
2022/05/17 07:58:14;;;;;;;0.03;0.03;;;;;;;17.48;66.99;100571.88;7363351;19;20142;-58
2022/05/17 08:00:41;;;;;;;0.00;0.00;;;;;;;17.56;66.93;100568.84;7368018;19;20122;-59
2022/05/17 08:03:08;;;;;;;0.00;0.00;;;;;;;17.52;66.37;100554.09;7366044;19;20584;-59
2022/05/17 08:05:35;;;;;;;0.00;0.00;;;;;;;17.75;65.86;100574.88;7366578;19;20023;-58
2022/05/17 08:08:01;;;;;;;0.00;0.00;;;;;;;17.81;65.42;100585.09;7369140;19;20078;-58
2022/05/17 08:10:26;;;;;;;0.10;0.10;;;;;;;17.89;65.33;100588.19;7367548;19;20035;-58
2022/05/17 08:12:52;;;;;;;0.10;0.10;;;;;;;17.95;64.40;100589.66;7367064;19;20027;-57
2022/05/17 08:15:19;;;;;;;0.00;0.00;;;;;;;18.03;64.34;100578.63;7368699;19;20042;-59
2022/05/17 08:17:44;;;;;;;0.10;0.10;;;;;;;18.06;63.88;100573.19;7366508;19;20027;-59
2022/05/17 08:20:10;;;;;;;0.10;0.10;;;;;;;18.13;63.43;100582.47;7368135;19;20010;-59
2022/05/17 08:22:41;;;;;;;0.00;0.00;;;;;;;18.22;62.83;100581.97;7367320;19;20388;-58
2022/05/17 08:27:54;;;;;;;0.10;0.10;;;;;;;18.27;63.72;100571.13;7367318;19;20048;-59
2022/05/17 08:30:22;;;;;;;0.10;0.10;;;;;;;18.30;64.01;100558.59;7368384;19;20037;-59
2022/05/17 08:33:15;;;;;;;0.10;0.10;;;;;;;18.35;64.08;100559.19;7366694;19;20010;-59
2022/05/17 08:35:42;;;;;;;0.10;0.10;;;;;;;18.38;63.94;100547.56;7264635;19;2004311;-58
2022/05/17 08:38:10;;;;;;;0.00;0.00;;;;;;;18.37;64.37;100546.72;7364860;19;20015;-59
2022/05/17 08:40:49;;;;;;;0.10;0.10;;;;;;;18.47;64.22;100551.50;7366092;19;20026;-58
2022/05/17 08:43:26;;;;;;;0.10;0.10;;;;;;;18.43;63.67;100550.81;7366199;19;20023;-58
2022/05/17 08:46:29;;;;;;;0.00;0.00;;;;;;;18.47;63.25;100548.84;7363839;19;20006;-58
2022/05/17 08:49:16;;;;;;;0.00;0.00;;;;;;;18.51;64.96;100547.72;7259265;19;2004409;-57
2022/05/17 08:51:47;;;;;;;0.00;0.00;;;;;;;18.50;64.35;100551.28;7364773;19;20007;-60
2022/05/17 08:54:17;;;;;;;0.00;0.00;;;;;;;18.50;64.54;100546.88;7365222;19;20344;-58
2022/05/17 08:56:53;;;;;;;0.00;0.00;;;;;;;18.51;64.98;100553.03;7365619;19;20010;-57
2022/05/17 08:59:23;;;;;;;0.00;0.00;;;;;;;18.52;64.44;100549.44;7364731;19;20514;-58
2022/05/17 09:02:15;;;;;;;0.00;0.00;;;;;;;18.59;63.78;100548.13;7364458;19;20010;-57
2022/05/17 09:04:52;;;;;;;0.00;0.00;;;;;;;18.58;63.95;100543.78;7360491;19;20029;-57
2022/05/17 09:07:43;;;;;;;0.10;0.10;;;;;;;18.63;63.50;100549.66;7363889;19;20516;-58
2022/05/17 09:10:37;;;;;;;0.00;0.00;;;;;;;18.65;63.38;100546.00;7359038;19;20011;-59
2022/05/17 09:13:15;;;;;;;0.00;0.00;;;;;;;18.68;63.75;100544.97;7263785;19;2004382;-56
2022/05/17 09:15:42;;;;;;;0.10;0.10;;;;;;;18.66;63.94;100541.53;7363614;19;20063;-59
2022/05/17 09:18:10;;;;;;;0.10;0.10;;;;;;;18.66;64.21;100525.69;7361054;19;20014;-59
2022/05/17 09:20:37;;;;;;;0.10;0.10;;;;;;;18.80;63.57;100538.94;7364412;19;20482;-59
2022/05/17 09:23:03;;;;;;;0.08;0.08;;;;;;;18.86;63.48;100533.31;7361263;19;20029;-58
2022/05/17 09:26:00;;;;;;;0.00;0.00;;;;;;;18.98;63.28;100541.44;7365093;19;20010;-58
2022/05/17 09:28:58;;;;;;;0.00;0.00;;;;;;;18.99;63.16;100517.53;7257981;19;2004581;-58
2022/05/17 09:31:25;;;;;;;0.00;0.00;;;;;;;19.09;63.05;100541.66;7259254;19;2004194;-58
2022/05/17 09:33:52;;;;;;;0.10;0.10;;;;;;;19.15;63.03;100533.31;7362288;19;20097;-58
2022/05/17 09:36:23;;;;;;;0.08;0.08;;;;;;;19.24;62.42;100538.06;7362208;19;20030;-59
2022/05/17 09:38:52;;;;;;;0.10;0.10;;;;;;;19.31;62.68;100543.81;7366353;19;20577;-58
2022/05/17 09:41:25;;;;;;;0.00;0.00;;;;;;;19.28;62.26;100531.66;7360325;19;21443;-58
2022/05/17 09:43:59;;;;;;;0.10;0.10;;;;;;;19.42;61.59;100544.88;7365867;19;20019;-58
2022/05/17 09:46:31;;;;;;;0.05;0.05;;;;;;;19.45;61.21;100542.03;7364889;19;20455;-57
2022/05/17 09:54:43;;;;;;;0.10;0.10;;;;;;;19.56;61.84;100535.22;7261682;19;2005247;-57
2022/05/17 09:57:13;;;;;;;0.10;0.10;;;;;;;19.69;61.87;100528.25;7364082;19;20023;-57
2022/05/17 09:59:39;;;;;;;0.10;0.10;;;;;;;19.77;61.12;100546.28;7366322;19;20010;-58
2022/05/17 10:02:24;;;;;;;0.00;0.00;;;;;;;19.82;60.81;100529.16;7362895;19;20015;-58
2022/05/17 10:04:49;;;;;;;0.10;0.10;;;;;;;19.88;60.36;100523.47;7363051;19;20723;-57
2022/05/17 10:07:18;;;;;;;0.10;0.10;;;;;;;19.93;60.21;100517.88;7364848;19;20017;-59
2022/05/17 10:09:45;;;;;;;0.10;0.10;;;;;;;19.88;60.25;100512.88;7364442;19;20030;-58
2022/05/17 10:12:21;;;;;;;0.10;0.10;;;;;;;19.90;60.30;100520.72;7364820;19;20030;-58
2022/05/17 10:14:50;;;;;;;0.08;0.08;;;;;;;19.90;59.74;100524.22;7364611;19;20027;-59
2022/05/17 10:17:34;;;;;;;0.10;0.10;;;;;;;19.96;60.21;100515.00;7364001;19;20014;-57
2022/05/17 10:20:09;;;;;;;0.10;0.10;;;;;;;19.96;60.17;100529.09;7365134;19;20006;-59
2022/05/17 10:22:50;;;;;;;0.10;0.10;;;;;;;19.99;59.99;100521.94;7364949;19;20458;-59
2022/05/17 10:25:36;;;;;;;0.10;0.10;;;;;;;20.01;59.48;100522.66;7363972;19;20466;-58
2022/05/17 10:28:12;;;;;;;0.00;0.00;;;;;;;20.09;59.53;100525.69;7362601;19;20021;-57
2022/05/17 10:30:44;;;;;;;0.10;0.10;;;;;;;20.08;58.99;100518.69;7359606;19;20007;-57
2022/05/17 10:34:04;;;;;;;0.10;0.10;;;;;;;20.11;59.20;100513.16;7362644;19;20018;-58
2022/05/17 10:36:40;;;;;;;0.10;0.10;;;;;;;20.11;58.85;100507.84;7145192;19;2005480;-58
2022/05/17 10:39:17;;;;;;;0.10;0.10;;;;;;;20.14;59.16;100502.38;7362158;19;20002;-58
2022/05/17 10:41:43;;;;;;;0.10;0.10;;;;;;;20.13;59.10;100492.72;7366174;19;21045;-59
2022/05/17 10:44:15;;;;;;;0.10;0.10;;;;;;;20.11;58.95;100484.00;7370591;19;20002;-59
2022/05/17 10:46:48;;;;;;;0.10;0.10;;;;;;;20.25;58.64;100499.84;7364700;19;20018;-59
2022/05/17 10:49:25;;;;;;;0.10;0.10;;;;;;;20.27;58.62;100502.41;7365899;19;20427;-57
2022/05/17 10:52:23;;;;;;;0.00;0.00;;;;;;;20.36;58.69;100517.72;7366757;19;20137;-58
2022/05/17 10:55:03;;;;;;;0.00;0.00;;;;;;;20.34;58.48;100522.28;7266525;19;2004540;-58
2022/05/17 10:57:41;;;;;;;0.10;0.10;;;;;;;20.30;58.89;100521.63;7368504;19;20010;-58
2022/05/17 11:00:14;;;;;;;0.10;0.10;;;;;;;20.29;58.61;100525.22;7370838;19;20003;-59
2022/05/17 11:03:21;;;;;;;0.10;0.10;;;;;;;20.34;58.93;100525.78;7367374;19;20533;-59
2022/05/17 11:05:56;;;;;;;0.05;0.05;;;;;;;20.35;58.49;100526.63;7268948;19;2006052;-57
2022/05/17 11:08:32;;;;;;;0.00;0.00;;;;;;;20.34;57.85;100512.50;7370698;19;20643;-58
2022/05/17 11:11:23;;;;;;;0.10;0.10;;;;;;;20.42;58.44;100507.53;7370274;19;20015;-57
2022/05/17 11:13:58;;;;;;;0.10;0.10;;;;;;;20.47;58.63;100499.28;7266137;19;2004523;-59
2022/05/17 11:16:40;;;;;;;0.10;0.10;;;;;;;20.52;58.45;100489.22;7367806;19;20560;-58
2022/05/17 11:19:14;;;;;;;0.10;0.10;;;;;;;20.56;58.66;100489.88;7368812;19;20034;-58
2022/05/17 11:21:58;;;;;;;0.10;0.10;;;;;;;20.62;58.22;100474.38;7368923;19;20015;-57
2022/05/17 11:24:48;;;;;;;0.10;0.10;;;;;;;20.66;58.01;100472.38;7368013;19;20013;-58
2022/05/17 11:27:24;;;;;;;0.10;0.10;;;;;;;20.65;57.77;100476.00;7368947;19;20644;-57
2022/05/17 11:30:01;;;;;;;0.00;0.00;;;;;;;20.65;57.76;100470.69;7369733;19;20014;-57
2022/05/17 11:32:28;;;;;;;;;;;;;;;20.67;57.96;100474.06;7369031;19;20010;-57
2022/05/17 11:34:56;;;;;;;0.10;0.10;;;;;;;20.57;57.62;100473.00;7364728;19;19923;-57
2022/05/17 11:37:34;;;;;;;0.10;0.10;;;;;;;20.55;57.82;100474.91;7364458;19;20481;-59
2022/05/17 11:40:03;;;;;;;0.10;0.10;;;;;;;20.43;57.84;100481.88;7368263;19;20010;-58
2022/05/17 11:45:51;;;;;;;0.03;0.03;;;;;;;20.26;57.49;100488.28;7259211;19;2004480;-58
2022/05/17 11:48:46;;;;;;;0.10;0.10;;;;;;;20.19;57.71;100489.66;7359117;19;20808;-59
2022/05/17 11:51:12;;;;;;;0.10;0.10;;;;;;;20.02;58.03;100481.94;7256705;19;2004428;-58